Time;durP1;ratioP1;P1;durP2;ratioP2;P2;SDS_P1;SDS_P2;PMS_P1;PMS_P2;Temp;Humidity;BMP_temperature;BMP_pressure;BME280_temperature;BME280_humidity;BME280_pressure;Samples;Min_cycle;Max_cycle;Signal;HPM_P1;HPM_P2
2023/09/06 00:00:45;;;;;;;0.10;0.10;;;21.30;99.90;;;;;;4936999;28;20107;-69
2023/09/06 00:03:12;;;;;;;1.70;0.40;;;21.30;99.90;;;;;;4972256;28;20072;-69
2023/09/06 00:05:41;;;;;;;0.28;0.28;;;21.30;99.90;;;;;;4945357;28;20082;-70
2023/09/06 00:08:12;;;;;;;0.35;0.30;;;21.20;99.90;;;;;;4959271;28;21802;-69
2023/09/06 00:10:39;;;;;;;0.00;0.00;;;21.30;99.90;;;;;;4946723;28;20045;-70
2023/09/06 00:13:07;;;;;;;0.10;0.10;;;21.20;99.90;;;;;;4945090;28;20048;-69
2023/09/06 00:15:33;;;;;;;0.05;0.03;;;21.20;99.90;;;;;;4984102;28;20040;-69
2023/09/06 00:17:59;;;;;;;0.77;0.70;;;21.10;99.90;;;;;;4954876;28;20044;-70
2023/09/06 00:20:24;;;;;;;0.43;0.43;;;21.10;99.90;;;;;;4955822;28;20399;-69
2023/09/06 00:23:01;;;;;;;0.63;0.45;;;21.00;99.90;;;;;;4915801;28;20056;-70
2023/09/06 00:25:31;;;;;;;0.05;0.03;;;21.10;99.90;;;;;;4966908;28;20048;-69
2023/09/06 00:27:58;;;;;;;0.15;0.15;;;21.10;99.90;;;;;;4972222;28;20042;-70
2023/09/06 00:30:24;;;;;;;0.28;0.28;;;21.10;99.90;;;;;;4926410;28;20573;-69
2023/09/06 00:32:53;;;;;;;0.00;0.00;;;21.00;99.90;;;;;;4948996;28;20127;-70
2023/09/06 00:35:20;;;;;;;0.57;0.47;;;20.90;99.90;;;;;;4942903;28;20055;-69
2023/09/06 00:37:46;;;;;;;0.47;0.47;;;20.90;99.90;;;;;;4952382;28;20131;-69
2023/09/06 00:40:18;;;;;;;0.88;0.52;;;20.80;99.90;;;;;;4955471;28;20472;-69
2023/09/06 00:42:59;;;;;;;0.73;0.68;;;20.80;99.90;;;;;;4964199;28;20052;-69
2023/09/06 00:45:36;;;;;;;0.38;0.28;;;20.80;99.90;;;;;;4959172;28;20053;-69
2023/09/06 00:48:05;;;;;;;0.00;0.00;;;20.80;99.90;;;;;;4946222;28;20059;-69
2023/09/06 00:50:32;;;;;;;0.50;0.50;;;20.80;99.90;;;;;;4946704;28;20087;-69
2023/09/06 00:52:59;;;;;;;0.65;0.65;;;20.80;99.90;;;;;;4965470;28;20119;-69
2023/09/06 00:55:25;;;;;;;0.00;0.00;;;20.70;99.90;;;;;;4971701;28;20473;-69
2023/09/06 00:57:52;;;;;;;1.38;0.82;;;20.70;99.90;;;;;;4926443;28;20053;-69
2023/09/06 01:00:19;;;;;;;17.65;3.10;;;20.70;99.90;;;;;;4976448;28;20058;-69
2023/09/06 01:02:46;;;;;;;0.63;0.63;;;20.70;99.90;;;;;;4949067;28;20095;-69
2023/09/06 01:05:13;;;;;;;0.52;0.52;;;20.70;99.90;;;;;;4922486;28;20117;-69
2023/09/06 01:07:40;;;;;;;0.47;0.47;;;20.60;99.90;;;;;;4933125;28;20054;-69
2023/09/06 01:10:06;;;;;;;1.15;0.98;;;20.60;99.90;;;;;;4962846;28;20040;-69
2023/09/06 01:12:34;;;;;;;0.30;0.30;;;20.60;99.90;;;;;;4971116;28;20107;-69
2023/09/06 01:15:06;;;;;;;2.05;0.40;;;20.60;99.90;;;;;;4925644;28;20101;-69
2023/09/06 01:17:36;;;;;;;0.00;0.00;;;20.50;99.90;;;;;;4913112;28;20059;-69
2023/09/06 01:20:15;;;;;;;1.73;0.25;;;20.60;99.90;;;;;;4955212;28;20075;-69
2023/09/06 01:22:47;;;;;;;4.97;0.52;;;20.50;99.90;;;;;;4909316;28;20132;-69
2023/09/06 01:25:14;;;;;;;0.10;0.10;;;20.50;99.90;;;;;;4955919;28;20547;-69
2023/09/06 01:27:40;;;;;;;0.20;0.20;;;20.50;99.90;;;;;;4956024;28;20107;-69
2023/09/06 01:30:07;;;;;;;0.20;0.15;;;20.50;99.90;;;;;;4953760;28;20040;-69
2023/09/06 01:32:32;;;;;;;0.17;0.17;;;20.40;99.90;;;;;;4921329;28;20036;-69
2023/09/06 01:34:58;;;;;;;0.25;0.25;;;20.50;99.90;;;;;;4969996;28;20159;-70
2023/09/06 01:37:23;;;;;;;0.00;0.00;;;20.50;99.90;;;;;;4905721;28;20512;-69
2023/09/06 01:39:49;;;;;;;0.03;0.03;;;20.40;99.90;;;;;;4948670;28;20040;-69
2023/09/06 01:42:15;;;;;;;1.15;0.95;;;20.30;99.90;;;;;;4952721;28;20615;-69
2023/09/06 01:44:40;;;;;;;0.30;0.30;;;20.40;99.90;;;;;;4944797;28;20048;-69
2023/09/06 01:47:06;;;;;;;0.00;0.00;;;20.30;99.90;;;;;;4970448;28;20445;-69
2023/09/06 01:49:32;;;;;;;0.20;0.20;;;20.30;99.90;;;;;;4969355;28;20053;-69
2023/09/06 01:51:59;;;;;;;0.00;0.00;;;20.30;99.90;;;;;;4952672;28;20045;-69
2023/09/06 01:54:25;;;;;;;0.28;0.28;;;20.30;99.90;;;;;;4949314;28;20051;-69
2023/09/06 01:56:51;;;;;;;0.05;0.05;;;20.30;99.90;;;;;;4950715;28;20417;-69
2023/09/06 01:59:17;;;;;;;1.23;0.82;;;20.30;99.90;;;;;;4955522;28;20052;-69
2023/09/06 02:01:42;;;;;;;0.20;0.20;;;20.20;99.90;;;;;;4919089;28;20048;-69
2023/09/06 02:04:08;;;;;;;0.00;0.00;;;20.20;99.90;;;;;;4944669;28;20040;-69
2023/09/06 02:06:34;;;;;;;0.20;0.20;;;20.20;99.90;;;;;;4971293;28;20556;-69
2023/09/06 02:08:59;;;;;;;0.00;0.00;;;20.20;99.90;;;;;;4924010;28;20118;-69
2023/09/06 02:11:25;;;;;;;1.60;1.30;;;20.10;99.90;;;;;;4959195;28;20508;-69
2023/09/06 02:13:52;;;;;;;0.35;0.35;;;20.10;99.90;;;;;;4953435;28;20076;-69
2023/09/06 02:16:17;;;;;;;1.00;0.85;;;20.10;99.90;;;;;;4966135;28;20043;-69
2023/09/06 02:18:43;;;;;;;0.30;0.30;;;20.00;99.90;;;;;;4961173;28;20048;-69
2023/09/06 02:21:09;;;;;;;0.00;0.00;;;20.10;99.90;;;;;;4967571;28;20036;-69
2023/09/06 02:23:35;;;;;;;0.15;0.15;;;20.10;99.90;;;;;;4969867;28;20137;-69
2023/09/06 02:26:02;;;;;;;0.22;0.22;;;20.10;99.90;;;;;;4958808;28;20117;-69
2023/09/06 02:28:28;;;;;;;0.13;0.13;;;20.10;99.90;;;;;;4924381;28;20045;-69
2023/09/06 02:30:54;;;;;;;0.20;0.20;;;20.00;99.90;;;;;;4978649;28;20476;-69
2023/09/06 02:33:19;;;;;;;1.00;0.38;;;20.00;99.90;;;;;;4905197;28;20052;-69
2023/09/06 02:35:45;;;;;;;0.10;0.10;;;19.90;99.90;;;;;;4960554;28;20085;-69
2023/09/06 02:38:12;;;;;;;0.45;0.10;;;19.90;99.90;;;;;;4973274;28;20106;-69
2023/09/06 02:40:40;;;;;;;3.30;1.30;;;19.90;99.90;;;;;;4963040;28;20067;-71
2023/09/06 02:43:06;;;;;;;0.17;0.17;;;19.80;99.90;;;;;;4957552;28;20045;-69
2023/09/06 02:45:38;;;;;;;0.80;0.52;;;19.90;99.90;;;;;;4962149;28;20059;-68
2023/09/06 02:48:12;;;;;;;0.68;0.68;;;19.90;99.90;;;;;;4958076;28;20053;-69
2023/09/06 02:50:39;;;;;;;0.47;0.47;;;19.90;99.90;;;;;;4961444;28;20061;-69
2023/09/06 02:53:15;;;;;;;1.13;0.47;;;19.90;99.90;;;;;;4937893;28;20061;-69
2023/09/06 02:55:41;;;;;;;0.47;0.47;;;19.80;99.90;;;;;;4949273;28;20041;-69
2023/09/06 02:58:07;;;;;;;0.13;0.13;;;19.80;99.90;;;;;;4969556;28;20042;-69
2023/09/06 03:00:35;;;;;;;0.10;0.10;;;19.80;99.90;;;;;;4939728;28;20496;-69
2023/09/06 03:03:05;;;;;;;0.65;0.45;;;19.80;99.90;;;;;;4933912;28;20489;-69
2023/09/06 03:05:41;;;;;;;0.17;0.17;;;19.80;99.90;;;;;;4961900;28;20441;-69
2023/09/06 03:08:07;;;;;;;1.23;0.40;;;19.80;99.90;;;;;;4946436;28;20036;-69
2023/09/06 03:10:34;;;;;;;21.23;1.17;;;19.70;99.90;;;;;;4959362;28;20036;-69
2023/09/06 03:13:00;;;;;;;0.45;0.45;;;19.70;99.90;;;;;;4948046;28;20103;-69
2023/09/06 03:15:28;;;;;;;0.00;0.00;;;19.60;99.90;;;;;;4979830;28;20044;-69
2023/09/06 03:18:01;;;;;;;2.90;0.85;;;19.60;99.90;;;;;;4956672;28;20052;-69
2023/09/06 03:20:43;;;;;;;0.65;0.52;;;19.60;99.90;;;;;;4927612;28;20084;-69
2023/09/06 03:23:17;;;;;;;0.03;0.03;;;19.60;99.90;;;;;;4950483;28;20152;-69
2023/09/06 03:25:57;;;;;;;0.43;0.43;;;19.60;99.90;;;;;;4953972;28;20754;-69
2023/09/06 03:28:25;;;;;;;0.20;0.20;;;19.60;99.90;;;;;;4962970;28;20048;-69
2023/09/06 03:30:52;;;;;;;0.08;0.08;;;19.50;99.90;;;;;;4973246;28;20097;-69
2023/09/06 03:33:17;;;;;;;0.63;0.55;;;19.50;99.90;;;;;;4956080;28;20513;-69
2023/09/06 03:35:45;;;;;;;0.47;0.43;;;19.50;99.90;;;;;;4952368;28;20079;-69
2023/09/06 03:38:10;;;;;;;0.25;0.25;;;19.50;99.90;;;;;;4907177;28;20078;-69
2023/09/06 03:40:37;;;;;;;0.10;0.10;;;19.50;99.90;;;;;;4948342;28;20045;-69
2023/09/06 03:43:14;;;;;;;0.22;0.22;;;19.40;99.90;;;;;;4935980;28;20481;-69
2023/09/06 03:45:44;;;;;;;0.08;0.08;;;19.40;99.90;;;;;;4975764;28;20120;-69
2023/09/06 03:48:10;;;;;;;0.40;0.40;;;19.40;99.90;;;;;;4950100;28;20056;-69
2023/09/06 03:50:36;;;;;;;0.32;0.32;;;19.40;99.90;;;;;;4956722;28;20484;-69
2023/09/06 03:53:04;;;;;;;1.02;0.52;;;19.30;99.90;;;;;;4939922;28;20076;-69
2023/09/06 03:55:29;;;;;;;1.17;1.08;;;19.30;99.90;;;;;;4968409;28;20046;-69
2023/09/06 03:57:55;;;;;;;0.10;0.10;;;19.30;99.90;;;;;;4961975;28;20157;-69
2023/09/06 04:00:30;;;;;;;0.40;0.20;;;19.30;99.90;;;;;;4951536;28;20084;-69
2023/09/06 04:02:56;;;;;;;0.03;0.03;;;19.30;99.90;;;;;;4939519;28;20098;-69
2023/09/06 04:05:25;;;;;;;0.70;0.43;;;19.20;99.90;;;;;;4956115;28;20054;-69
2023/09/06 04:07:59;;;;;;;0.30;0.30;;;19.20;99.90;;;;;;4957239;28;20040;-69
2023/09/06 04:10:27;;;;;;;0.10;0.10;;;19.20;99.90;;;;;;4940027;28;20040;-69
2023/09/06 04:12:55;;;;;;;0.32;0.32;;;19.20;99.90;;;;;;4992659;28;20046;-69
2023/09/06 04:15:24;;;;;;;0.65;0.65;;;19.20;99.90;;;;;;4925992;28;20045;-69
2023/09/06 04:17:59;;;;;;;2.40;0.82;;;19.20;99.90;;;;;;4950166;28;20040;-69
2023/09/06 04:20:31;;;;;;;0.35;0.20;;;19.10;99.90;;;;;;4955631;28;20037;-69
2023/09/06 04:22:58;;;;;;;0.20;0.20;;;19.10;99.90;;;;;;4949535;28;20153;-69
2023/09/06 04:25:26;;;;;;;0.00;0.00;;;19.10;99.90;;;;;;4976471;28;20042;-69
2023/09/06 04:27:55;;;;;;;0.15;0.15;;;19.10;99.90;;;;;;4923435;28;20112;-69
2023/09/06 04:30:32;;;;;;;0.55;0.38;;;19.10;99.90;;;;;;4954015;28;20470;-69
2023/09/06 04:32:57;;;;;;;0.20;0.20;;;19.10;99.90;;;;;;4915627;28;20052;-69
2023/09/06 04:35:33;;;;;;;1.50;0.90;;;19.00;99.90;;;;;;4914341;28;20059;-69
2023/09/06 04:37:59;;;;;;;1.80;0.73;;;19.00;99.90;;;;;;4954238;28;20041;-69
2023/09/06 04:40:25;;;;;;;0.00;0.00;;;19.00;99.90;;;;;;4956197;28;20399;-69
2023/09/06 04:42:51;;;;;;;2.40;0.63;;;19.00;99.90;;;;;;4937702;28;20045;-69
2023/09/06 04:45:17;;;;;;;2.45;0.63;;;19.00;99.90;;;;;;4960910;28;20059;-69
2023/09/06 04:47:43;;;;;;;0.20;0.10;;;19.00;99.90;;;;;;4963558;28;20054;-69
2023/09/06 04:50:10;;;;;;;0.10;0.10;;;19.00;99.90;;;;;;4963538;28;20042;-69
2023/09/06 04:52:42;;;;;;;1.10;0.28;;;19.00;99.90;;;;;;4950032;28;20099;-69
2023/09/06 04:55:08;;;;;;;0.30;0.30;;;19.00;99.90;;;;;;4952062;28;20057;-69
2023/09/06 04:57:36;;;;;;;0.32;0.32;;;19.00;99.90;;;;;;4956366;28;20067;-69
2023/09/06 05:00:10;;;;;;;0.77;0.52;;;18.90;99.90;;;;;;4950772;28;20483;-69
2023/09/06 05:02:36;;;;;;;0.13;0.13;;;19.00;99.90;;;;;;4959549;28;20049;-69
2023/09/06 05:05:01;;;;;;;11.27;0.57;;;19.00;99.90;;;;;;4960839;28;20042;-69
2023/09/06 05:07:27;;;;;;;0.10;0.10;;;18.90;99.90;;;;;;4930512;28;20092;-68
2023/09/06 05:09:57;;;;;;;0.00;0.00;;;18.90;99.90;;;;;;4937570;28;20045;-69
2023/09/06 05:12:22;;;;;;;0.13;0.13;;;18.90;99.90;;;;;;4969084;28;20063;-69
2023/09/06 05:14:48;;;;;;;0.30;0.20;;;18.90;99.90;;;;;;4962723;28;20545;-69
2023/09/06 05:17:13;;;;;;;0.35;0.28;;;18.90;99.90;;;;;;4941012;28;20049;-69
2023/09/06 05:19:39;;;;;;;0.32;0.32;;;19.00;99.90;;;;;;4970911;28;20124;-69
2023/09/06 05:22:04;;;;;;;0.10;0.10;;;18.90;99.90;;;;;;4933140;28;20050;-69
2023/09/06 05:24:30;;;;;;;0.00;0.00;;;18.90;99.90;;;;;;4900741;28;20076;-69
2023/09/06 05:26:56;;;;;;;0.20;0.20;;;18.90;99.90;;;;;;4932877;28;20038;-69
2023/09/06 05:29:21;;;;;;;5.95;0.52;;;18.90;99.90;;;;;;4962978;28;20046;-69
2023/09/06 05:31:47;;;;;;;0.32;0.20;;;18.90;99.90;;;;;;4907921;28;20082;-69
2023/09/06 05:34:12;;;;;;;0.00;0.00;;;18.90;99.90;;;;;;4943594;28;20095;-69
2023/09/06 05:36:38;;;;;;;0.00;0.00;;;18.90;99.90;;;;;;4961898;28;20039;-69
2023/09/06 05:39:06;;;;;;;0.22;0.22;;;19.00;99.90;;;;;;4947725;28;20056;-69
2023/09/06 05:41:32;;;;;;;0.70;0.35;;;19.00;99.90;;;;;;4951614;28;20041;-69
2023/09/06 05:43:58;;;;;;;2.30;0.57;;;19.00;99.90;;;;;;4970336;28;20064;-68
2023/09/06 05:46:23;;;;;;;0.00;0.00;;;19.00;99.90;;;;;;4929650;28;20051;-69
2023/09/06 05:48:49;;;;;;;0.10;0.10;;;19.00;99.90;;;;;;4946092;28;20071;-69
2023/09/06 05:51:15;;;;;;;0.30;0.30;;;19.10;99.90;;;;;;4942462;28;20040;-69
2023/09/06 05:53:40;;;;;;;0.00;0.00;;;19.10;99.90;;;;;;4912168;28;20094;-69
2023/09/06 05:56:06;;;;;;;0.00;0.00;;;19.10;99.90;;;;;;4970934;28;20048;-69
2023/09/06 05:58:37;;;;;;;0.25;0.20;;;19.10;99.90;;;;;;4952200;28;20044;-68
2023/09/06 06:01:06;;;;;;;2.10;0.63;;;19.10;99.90;;;;;;4931073;28;20071;-69
2023/09/06 06:03:32;;;;;;;0.25;0.25;;;19.10;99.90;;;;;;4953616;28;20040;-69
2023/09/06 06:05:58;;;;;;;3.00;0.88;;;19.10;99.90;;;;;;4954344;28;20138;-69
2023/09/06 06:08:23;;;;;;;0.52;0.52;;;19.20;99.90;;;;;;4941918;28;20190;-69
2023/09/06 06:10:50;;;;;;;0.08;0.08;;;19.20;99.90;;;;;;4977934;28;20034;-69
2023/09/06 06:13:15;;;;;;;2.85;0.32;;;19.20;99.90;;;;;;4955932;28;20048;-69
2023/09/06 06:15:41;;;;;;;0.08;0.08;;;19.20;99.90;;;;;;4942102;28;20107;-69
2023/09/06 06:18:07;;;;;;;0.05;0.05;;;19.30;99.90;;;;;;4937396;28;20044;-69
2023/09/06 06:20:33;;;;;;;0.00;0.00;;;19.20;99.90;;;;;;4975069;28;20104;-69
2023/09/06 06:22:59;;;;;;;0.45;0.45;;;19.30;99.90;;;;;;4952369;28;20046;-69
2023/09/06 06:25:24;;;;;;;0.10;0.10;;;19.40;99.90;;;;;;4957466;28;20552;-69
2023/09/06 06:27:52;;;;;;;0.00;0.00;;;19.40;99.90;;;;;;4948158;28;20038;-68
2023/09/06 06:30:18;;;;;;;0.70;0.60;;;19.40;99.90;;;;;;4959823;28;20049;-69
2023/09/06 06:32:44;;;;;;;0.20;0.20;;;19.40;99.90;;;;;;4982468;28;20056;-68
2023/09/06 06:35:12;;;;;;;0.80;0.45;;;19.40;99.90;;;;;;4913519;28;20145;-68
2023/09/06 06:37:38;;;;;;;4.78;0.20;;;19.40;99.90;;;;;;4955606;28;20131;-68
2023/09/06 06:40:05;;;;;;;1.85;0.57;;;19.50;99.90;;;;;;4961806;28;20580;-68
2023/09/06 06:42:39;;;;;;;0.00;0.00;;;19.60;99.90;;;;;;4938132;28;20135;-68
2023/09/06 06:45:05;;;;;;;0.47;0.38;;;19.60;99.90;;;;;;4951947;28;20509;-68
2023/09/06 06:47:30;;;;;;;0.00;0.00;;;19.70;99.90;;;;;;4961449;28;20489;-69
2023/09/06 06:50:02;;;;;;;0.68;0.52;;;19.70;99.90;;;;;;4907399;28;20030;-69
2023/09/06 06:52:30;;;;;;;0.13;0.13;;;19.80;99.90;;;;;;4933079;28;20057;-68
2023/09/06 06:54:56;;;;;;;0.00;0.00;;;19.80;99.90;;;;;;4946596;28;20129;-68
2023/09/06 06:57:22;;;;;;;0.20;0.20;;;19.80;99.90;;;;;;4951206;28;20125;-69
2023/09/06 06:59:47;;;;;;;0.15;0.15;;;19.90;99.90;;;;;;4930297;28;20048;-69
2023/09/06 07:02:13;;;;;;;0.70;0.70;;;20.00;99.90;;;;;;4929547;28;20053;-69
2023/09/06 07:04:39;;;;;;;0.08;0.08;;;20.00;99.90;;;;;;4906093;28;20056;-68
2023/09/06 07:07:05;;;;;;;0.00;0.00;;;20.00;99.90;;;;;;4923535;28;20127;-69
2023/09/06 07:09:31;;;;;;;0.10;0.10;;;20.10;99.90;;;;;;4908528;28;20163;-69
2023/09/06 07:11:57;;;;;;;0.30;0.22;;;20.20;99.90;;;;;;4915057;28;20106;-69
2023/09/06 07:14:23;;;;;;;0.00;0.00;;;20.20;99.90;;;;;;4955416;28;20042;-68
2023/09/06 07:16:48;;;;;;;0.00;0.00;;;20.20;99.90;;;;;;4970197;28;20506;-68
2023/09/06 07:19:14;;;;;;;0.10;0.10;;;20.30;99.90;;;;;;4927883;28;20135;-68
2023/09/06 07:21:40;;;;;;;0.00;0.00;;;20.30;99.90;;;;;;4971222;28;20394;-68
2023/09/06 07:24:09;;;;;;;0.35;0.35;;;20.30;99.90;;;;;;4947738;28;20394;-69
2023/09/06 07:26:35;;;;;;;0.50;0.22;;;20.40;99.90;;;;;;4973300;28;20476;-68
2023/09/06 07:29:01;;;;;;;0.32;0.32;;;20.50;99.90;;;;;;4955397;28;20094;-68
2023/09/06 07:31:26;;;;;;;0.10;0.10;;;20.50;99.90;;;;;;4939614;28;20052;-68
2023/09/06 07:33:52;;;;;;;0.00;0.00;;;20.50;99.90;;;;;;4941670;28;20984;-69
2023/09/06 07:36:18;;;;;;;0.65;0.22;;;20.50;99.90;;;;;;4955932;28;20095;-68
2023/09/06 07:38:44;;;;;;;0.00;0.00;;;20.60;99.90;;;;;;4939175;28;20045;-69
2023/09/06 07:41:11;;;;;;;0.45;0.28;;;20.60;99.90;;;;;;4941753;28;20675;-69
2023/09/06 07:43:37;;;;;;;0.10;0.10;;;20.70;99.90;;;;;;4970075;28;20061;-69
2023/09/06 07:46:07;;;;;;;0.00;0.00;;;20.70;99.90;;;;;;4956684;28;20032;-69
2023/09/06 07:48:33;;;;;;;0.17;0.15;;;20.80;99.90;;;;;;4920963;28;20052;-69
2023/09/06 07:50:59;;;;;;;0.00;0.00;;;20.90;99.90;;;;;;4949921;28;20134;-69
2023/09/06 07:53:26;;;;;;;0.10;0.10;;;20.90;99.90;;;;;;4956832;28;20157;-70
2023/09/06 07:55:53;;;;;;;1.92;0.65;;;20.90;99.90;;;;;;4943332;28;20040;-71
2023/09/06 07:58:19;;;;;;;0.00;0.00;;;20.90;99.90;;;;;;4905692;28;20058;-71
2023/09/06 08:00:46;;;;;;;0.40;0.40;;;20.90;99.90;;;;;;4911357;28;20173;-70
2023/09/06 08:03:12;;;;;;;0.10;0.10;;;21.00;99.90;;;;;;4912102;28;20052;-71
2023/09/06 08:05:38;;;;;;;2.15;1.55;;;21.00;99.90;;;;;;4959730;28;20052;-70
2023/09/06 08:08:06;;;;;;;0.75;0.75;;;21.10;99.90;;;;;;4942949;28;20410;-70
2023/09/06 08:10:32;;;;;;;0.25;0.25;;;21.10;99.90;;;;;;4955466;28;20040;-70
2023/09/06 08:12:58;;;;;;;0.10;0.10;;;21.10;99.90;;;;;;4965617;28;20044;-70
2023/09/06 08:15:24;;;;;;;0.00;0.00;;;21.20;99.90;;;;;;4938353;28;20056;-70
2023/09/06 08:17:49;;;;;;;0.47;0.40;;;21.30;99.90;;;;;;4949495;28;20044;-70
2023/09/06 08:20:15;;;;;;;0.13;0.13;;;21.40;99.90;;;;;;4952703;28;20059;-70
2023/09/06 08:22:42;;;;;;;0.10;0.10;;;21.40;99.90;;;;;;4948129;28;20041;-70
2023/09/06 08:25:08;;;;;;;0.57;0.20;;;21.50;99.90;;;;;;4949230;28;20093;-70
2023/09/06 08:27:34;;;;;;;0.05;0.05;;;21.50;99.90;;;;;;4954691;28;20562;-70
2023/09/06 08:29:59;;;;;;;0.17;0.17;;;21.50;99.90;;;;;;4954288;28;20076;-70
2023/09/06 08:32:25;;;;;;;0.00;0.00;;;21.60;99.90;;;;;;4944224;28;20052;-70
2023/09/06 08:34:51;;;;;;;0.73;0.47;;;21.70;99.90;;;;;;4973508;28;20047;-70
2023/09/06 08:37:16;;;;;;;0.60;0.60;;;21.70;99.90;;;;;;4954871;28;20044;-70
2023/09/06 08:39:42;;;;;;;0.00;0.00;;;21.70;99.90;;;;;;4947055;28;20095;-70
2023/09/06 08:42:07;;;;;;;0.00;0.00;;;21.80;99.90;;;;;;4937622;28;20539;-71
2023/09/06 08:44:35;;;;;;;0.10;0.10;;;21.80;99.90;;;;;;4957925;28;20040;-70
2023/09/06 08:47:04;;;;;;;1.20;0.90;;;22.00;99.90;;;;;;4936170;28;20118;-70
2023/09/06 08:49:30;;;;;;;0.60;0.15;;;22.10;99.90;;;;;;4954206;28;20045;-70
2023/09/06 08:51:59;;;;;;;0.00;0.00;;;22.10;99.90;;;;;;4965940;28;20049;-70
2023/09/06 08:54:25;;;;;;;0.00;0.00;;;22.20;99.90;;;;;;4937322;28;20037;-70
2023/09/06 08:56:51;;;;;;;0.00;0.00;;;22.30;99.90;;;;;;4955402;28;20044;-70
2023/09/06 08:59:19;;;;;;;0.08;0.08;;;22.40;99.90;;;;;;4981117;28;20090;-70
2023/09/06 09:01:45;;;;;;;0.10;0.10;;;22.50;99.90;;;;;;4949967;28;20043;-71
2023/09/06 09:04:12;;;;;;;1.20;1.17;;;22.90;99.90;;;;;;4984045;28;20044;-71
2023/09/06 09:06:42;;;;;;;0.00;0.00;;;23.80;99.90;;;;;;4953756;28;20048;-71
2023/09/06 09:09:18;;;;;;;0.75;0.55;;;24.70;99.90;;;;;;4932539;28;20049;-71
2023/09/06 09:11:45;;;;;;;0.00;0.00;;;25.30;99.90;;;;;;4951653;28;20043;-72
2023/09/06 09:14:23;;;;;;;0.15;0.15;;;26.30;99.90;;;;;;4965435;28;20075;-71
2023/09/06 09:16:59;;;;;;;0.20;0.20;;;26.60;99.90;;;;;;4954701;28;20044;-71
2023/09/06 09:19:25;;;;;;;0.05;0.05;;;26.90;99.90;;;;;;4961155;28;20042;-71
2023/09/06 09:21:52;;;;;;;3.10;0.17;;;27.00;99.90;;;;;;4947339;28;20052;-71
2023/09/06 09:24:29;;;;;;;0.10;0.10;;;27.50;99.90;;;;;;4932442;28;20099;-72
2023/09/06 09:26:58;;;;;;;0.30;0.30;;;27.90;99.90;;;;;;4962217;28;20048;-71
2023/09/06 09:29:24;;;;;;;0.70;0.20;;;28.10;99.90;;;;;;4959207;28;20049;-71
2023/09/06 09:31:50;;;;;;;0.00;0.00;;;28.40;99.90;;;;;;4969900;28;20481;-71
2023/09/06 09:34:17;;;;;;;0.05;0.05;;;28.60;99.90;;;;;;4938604;28;20063;-71
2023/09/06 09:36:50;;;;;;;0.20;0.20;;;28.50;99.90;;;;;;4970179;28;20044;-71
2023/09/06 09:39:18;;;;;;;0.75;0.38;;;28.50;99.90;;;;;;4954012;28;20053;-72
2023/09/06 09:41:45;;;;;;;0.75;0.20;;;28.80;99.90;;;;;;4960060;28;20124;-72
2023/09/06 09:44:13;;;;;;;0.00;0.00;;;28.90;99.90;;;;;;4971233;28;20138;-72
2023/09/06 09:46:41;;;;;;;0.80;0.80;;;28.90;99.90;;;;;;4930917;28;20056;-72
2023/09/06 09:49:08;;;;;;;1.08;0.50;;;28.70;99.90;;;;;;4979888;28;20099;-72
2023/09/06 09:51:35;;;;;;;1.33;0.22;;;28.60;99.90;;;;;;4923785;28;20052;-72
2023/09/06 09:54:03;;;;;;;0.10;0.10;;;28.90;99.90;;;;;;4968741;28;20040;-72
2023/09/06 09:56:30;;;;;;;7.97;0.30;;;29.40;99.90;;;;;;4954191;28;20080;-72
2023/09/06 09:58:57;;;;;;;0.10;0.10;;;29.40;99.90;;;;;;4957669;28;20052;-72
2023/09/06 10:01:22;;;;;;;0.00;0.00;;;29.40;99.90;;;;;;4918232;28;20076;-72
2023/09/06 10:03:55;;;;;;;0.10;0.10;;;29.40;99.90;;;;;;4957026;28;20132;-72
2023/09/06 10:06:24;;;;;;;0.17;0.13;;;29.60;99.90;;;;;;4970449;28;20061;-72
2023/09/06 10:08:52;;;;;;;0.00;0.00;;;29.80;99.90;;;;;;4917805;28;20075;-72
2023/09/06 10:11:20;;;;;;;0.52;0.43;;;29.90;99.90;;;;;;4928314;28;20052;-72
2023/09/06 10:13:47;;;;;;;1.17;0.10;;;29.70;99.90;;;;;;4970988;28;20046;-72
2023/09/06 10:16:14;;;;;;;0.28;0.28;;;29.60;99.90;;;;;;4922034;28;20056;-72
2023/09/06 10:18:39;;;;;;;0.10;0.10;;;29.50;99.90;;;;;;4947747;28;20131;-72
2023/09/06 10:21:06;;;;;;;0.22;0.15;;;29.30;99.90;;;;;;4957724;28;20179;-72
2023/09/06 10:23:40;;;;;;;0.00;0.00;;;29.20;99.90;;;;;;4942987;28;20079;-72
2023/09/06 10:26:06;;;;;;;0.50;0.50;;;29.20;99.90;;;;;;4977519;28;20085;-72
2023/09/06 10:28:33;;;;;;;0.00;0.00;;;29.00;99.90;;;;;;4954269;28;20072;-72
2023/09/06 10:31:07;;;;;;;0.00;0.00;;;29.20;99.90;;;;;;4951635;28;20040;-72
2023/09/06 10:33:35;;;;;;;0.00;0.00;;;29.00;99.90;;;;;;4935143;28;20565;-72
2023/09/06 10:36:15;;;;;;;0.40;0.40;;;28.90;99.90;;;;;;4938761;28;20084;-68
2023/09/06 10:38:54;;;;;;;0.00;0.00;;;28.80;99.90;;;;;;4984681;28;20574;-71
2023/09/06 10:41:21;;;;;;;0.17;0.10;;;28.70;99.90;;;;;;4954031;28;20092;-71
2023/09/06 10:43:59;;;;;;;0.10;0.10;;;28.80;99.90;;;;;;4939176;28;20041;-71
2023/09/06 10:46:43;;;;;;;0.10;0.10;;;28.80;99.90;;;;;;4942132;28;20067;-71
2023/09/06 10:49:16;;;;;;;0.20;0.20;;;28.80;99.90;;;;;;4949135;28;20064;-71
2023/09/06 10:51:55;;;;;;;0.65;0.32;;;28.90;99.90;;;;;;4961955;28;20052;-70
2023/09/06 10:54:33;;;;;;;0.00;0.00;;;28.90;99.90;;;;;;4959285;28;20045;-71
2023/09/06 10:57:01;;;;;;;0.00;0.00;;;29.10;99.90;;;;;;4945300;28;20408;-70
2023/09/06 10:59:28;;;;;;;5.90;0.77;;;29.30;99.90;;;;;;4951960;28;20060;-71
2023/09/06 11:02:18;;;;;;;1.08;0.55;;;29.30;99.90;;;;;;4956358;28;20045;-70
2023/09/06 11:04:44;;;;;;;0.10;0.10;;;29.30;99.90;;;;;;4969121;28;20046;-71
2023/09/06 11:07:10;;;;;;;0.00;0.00;;;29.30;99.90;;;;;;4955404;28;20048;-71
2023/09/06 11:09:43;;;;;;;0.03;0.03;;;29.30;99.90;;;;;;4951409;28;20048;-71
2023/09/06 11:12:09;;;;;;;0.00;0.00;;;29.40;99.90;;;;;;4969362;28;20044;-71
2023/09/06 11:14:35;;;;;;;0.20;0.10;;;29.50;99.90;;;;;;4955797;28;20083;-71
2023/09/06 11:17:01;;;;;;;0.00;0.00;;;29.60;99.90;;;;;;4948137;28;20077;-70
2023/09/06 11:19:28;;;;;;;0.55;0.55;;;29.70;99.90;;;;;;4964123;28;20046;-71
2023/09/06 11:22:12;;;;;;;0.38;0.13;;;29.70;99.90;;;;;;4955649;28;21650;-71
2023/09/06 11:24:38;;;;;;;2.25;0.55;;;29.90;99.90;;;;;;4929526;28;20053;-71
2023/09/06 11:27:17;;;;;;;0.00;0.00;;;29.90;99.90;;;;;;4937928;28;20396;-71
2023/09/06 11:29:43;;;;;;;0.20;0.10;;;30.10;99.90;;;;;;4950277;28;20044;-71
2023/09/06 11:32:13;;;;;;;0.00;0.00;;;30.30;99.90;;;;;;4956415;28;20510;-71
2023/09/06 11:34:45;;;;;;;0.00;0.00;;;30.40;99.90;;;;;;4938077;28;20084;-71
2023/09/06 11:37:14;;;;;;;0.00;0.00;;;30.50;99.90;;;;;;4965555;28;20100;-71
2023/09/06 11:39:42;;;;;;;0.10;0.10;;;30.50;99.90;;;;;;4958495;28;20052;-70
2023/09/06 11:42:11;;;;;;;0.00;0.00;;;30.70;99.90;;;;;;4942401;28;20400;-71
2023/09/06 11:44:43;;;;;;;0.10;0.10;;;30.90;99.90;;;;;;4971693;28;20514;-71
2023/09/06 11:47:09;;;;;;;0.30;0.10;;;31.00;99.90;;;;;;4956464;28;20055;-71
2023/09/06 11:49:35;;;;;;;0.17;0.17;;;31.10;99.90;;;;;;4955395;28;20045;-71
2023/09/06 11:52:05;;;;;;;0.10;0.10;;;31.10;99.90;;;;;;4954589;28;20033;-71
2023/09/06 11:54:32;;;;;;;0.20;0.15;;;31.20;99.90;;;;;;4970910;28;20176;-71
2023/09/06 11:56:58;;;;;;;0.10;0.10;;;31.50;99.90;;;;;;4956191;28;20052;-71
2023/09/06 11:59:28;;;;;;;0.20;0.20;;;31.60;99.90;;;;;;4944458;28;20118;-71
2023/09/06 12:02:00;;;;;;;0.10;0.10;;;31.90;99.90;;;;;;4961993;28;20056;-71
2023/09/06 12:04:28;;;;;;;0.22;0.10;;;31.90;99.90;;;;;;4971862;28;20057;-72
2023/09/06 12:06:56;;;;;;;0.08;0.03;;;31.70;99.90;;;;;;4954611;28;20051;-71
2023/09/06 12:09:22;;;;;;;1.00;0.47;;;31.90;99.90;;;;;;4960789;28;20167;-71
2023/09/06 12:11:47;;;;;;;0.00;0.00;;;31.80;99.90;;;;;;4971581;28;20116;-71
2023/09/06 12:14:15;;;;;;;0.00;0.00;;;32.00;99.90;;;;;;4937055;28;20050;-71
2023/09/06 12:16:41;;;;;;;0.08;0.03;;;32.20;99.90;;;;;;4951295;28;20040;-71
2023/09/06 12:19:12;;;;;;;0.00;0.00;;;32.00;99.90;;;;;;4962805;28;20051;-71
2023/09/06 12:21:37;;;;;;;0.22;0.13;;;32.40;99.90;;;;;;4968926;28;20474;-71
2023/09/06 12:24:03;;;;;;;0.00;0.00;;;32.70;99.90;;;;;;4913827;28;20052;-71
2023/09/06 12:26:29;;;;;;;0.10;0.10;;;32.60;99.90;;;;;;4946304;28;20445;-71
2023/09/06 12:28:55;;;;;;;0.20;0.17;;;32.50;99.90;;;;;;4974712;28;20068;-71
2023/09/06 12:31:20;;;;;;;0.00;0.00;;;32.40;99.90;;;;;;4964438;28;20406;-71
2023/09/06 12:33:48;;;;;;;0.90;0.30;;;32.90;99.90;;;;;;4954471;28;20518;-71
2023/09/06 12:36:16;;;;;;;2.30;0.35;;;33.10;99.90;;;;;;4921541;28;20426;-71
2023/09/06 12:38:42;;;;;;;1.08;1.00;;;33.20;99.90;;;;;;4955374;28;20091;-71
2023/09/06 12:41:08;;;;;;;0.05;0.05;;;33.10;99.90;;;;;;4975687;28;20446;-71
2023/09/06 12:43:37;;;;;;;0.00;0.00;;;33.30;99.90;;;;;;4963402;28;20459;-71
2023/09/06 12:46:11;;;;;;;0.00;0.00;;;32.90;99.90;;;;;;4945726;28;20036;-71
2023/09/06 12:48:37;;;;;;;0.00;0.00;;;33.30;99.90;;;;;;4984531;28;20100;-72